Aviation Digital Data Service (ADDS)

Output produced by METARs form (0404 UTC 27 April 2015)
found at http://aviationweather.gov/adds/metars/
 
KBTV 270300Z 2703/2724 32003KT P6SM OVC035 
     FM270800 VRB04KT P6SM VCSH SCT008 OVC025 
     FM271000 36008KT 6SM -SHRA BR SCT008 OVC025